CDT,Max TemperatureF,Mean TemperatureF,Min TemperatureF,Max Dew PointF,MeanDew PointF,Min DewpointF,Max Humidity, Mean Humidity, Min Humidity, Max Sea Level PressureIn, Mean Sea Level PressureIn, Min Sea Level PressureIn, Max VisibilityMiles, Mean VisibilityMiles, Min VisibilityMiles, Max Wind SpeedMPH, Mean Wind SpeedMPH, Max Gust SpeedMPH,PrecipitationIn, CloudCover, Events, WindDirDegrees
2013-4-1,43,35,29,25,19,14,75,53,34,30.27,30.16,29.99,10,10,10,18,15,23,0.00,1,,320
2013-4-2,46,34,23,18,15,10,75,48,25,30.37,30.32,30.27,10,10,10,15,9,23,0.00,0,,324
2013-4-3,50,36,23,21,18,14,78,50,26,30.48,30.40,30.34,10,10,10,17,8,20,0.00,0,,72
2013-4-4,57,43,29,28,21,17,72,44,21,30.33,30.16,30.04,10,10,10,12,6,,0.00,0,,204
2013-4-5,59,46,34,33,26,19,82,49,22,30.21,30.14,30.05,10,10,9,17,11,,0.00,1,,42
2013-4-6,72,54,37,48,35,23,77,49,28,30.12,29.85,29.68,10,9,2,39,20,48,0.08,2,Rain-Thunderstorm,185
2013-4-7,70,58,45,48,42,39,89,61,33,29.96,29.89,29.75,10,9,5,13,9,,0.00,0,,274
2013-4-8,73,64,55,58,55,43,94,79,51,29.91,29.79,29.68,10,9,2,36,17,44,0.04,4,Rain,210
2013-4-9,79,68,59,60,58,55,87,72,50,29.91,29.85,29.80,10,10,10,32,13,40,0.00,4,,184
2013-4-10,54,48,41,52,45,41,100,96,83,29.90,29.81,29.68,10,3,0,30,15,37,1.31,7,Fog-Rain-Thunderstorm,36
2013-4-11,50,42,37,49,43,32,100,95,79,29.79,29.66,29.61,10,6,1,30,17,36,0.19,8,Rain,214
2013-4-12,41,38,36,36,33,30,87,81,75,29.96,29.79,29.65,10,10,10,23,14,28,0.00,8,,249
2013-4-13,50,43,36,37,31,26,82,65,48,30.04,29.99,29.93,10,10,10,22,13,29,0.00,6,,258
2013-4-14,74,58,43,50,45,38,89,63,40,29.99,29.80,29.66,10,10,10,29,15,37,0.00,3,,153
2013-4-15,61,53,45,58,51,44,97,90,64,30.02,29.87,29.74,10,7,2,23,16,33,0.43,7,Rain-Thunderstorm,251
2013-4-16,52,46,41,45,42,37,100,88,69,30.24,30.09,29.93,10,6,0,20,13,,1.68,7,Fog-Rain-Thunderstorm,21
2013-4-17,61,52,42,61,47,37,100,93,76,30.24,30.00,29.77,10,7,1,25,16,33,0.01,8,Rain-Thunderstorm,69
2013-4-18,68,55,38,65,56,32,100,94,76,29.74,29.62,29.50,10,5,1,33,15,40,1.61,7,Rain-Thunderstorm,183
2013-4-19,38,36,33,34,30,28,100,77,68,30.05,29.81,29.64,10,9,2,26,19,33,0.04,8,Rain-Snow,270
2013-4-20,48,38,30,32,27,23,85,67,42,30.43,30.28,30.07,10,10,10,13,8,,0.00,2,,318
2013-4-21,54,43,32,38,33,28,86,66,49,30.52,30.43,30.33,10,10,10,17,12,22,0.00,0,,139
2013-4-22,66,52,39,46,38,33,76,56,34,30.33,30.19,30.04,10,10,10,15,11,22,0.00,1,,163
2013-4-23,59,47,36,53,46,36,97,87,69,30.05,29.96,29.91,10,8,2,23,13,28,0.46,7,Rain,276
2013-4-24,48,41,34,37,34,29,100,81,46,30.23,30.07,29.95,10,9,2,17,14,23,0.03,6,Rain,312
2013-4-25,54,46,37,33,29,24,79,56,34,30.36,30.28,30.17,10,10,10,24,14,31,0.00,1,,257
2013-4-26,63,50,38,46,40,32,89,66,50,30.39,30.34,30.29,10,10,10,22,13,,0.00,1,,190
2013-4-27,65,52,41,52,49,41,100,87,48,30.32,30.13,29.98,10,6,2,16,8,18,0.39,6,Rain,125
2013-4-28,61,56,51,56,53,51,100,95,77,29.98,29.91,29.87,10,4,0,12,8,,0.10,7,Fog-Rain,20
2013-4-29,72,59,46,58,53,46,100,83,59,29.95,29.88,29.79,10,7,1,25,12,29,0.00,0,,200
2013-4-30,82,70,57,62,58,55,93,69,41,29.94,29.86,29.79,10,10,10,22,18,28,0.00,0,,189